createdAt,value
2018-09-28T00:00:28.851Z,11.67
2018-09-28T00:02:57.660Z,11.97
2018-09-28T00:05:26.323Z,8.50
2018-09-28T00:07:55.032Z,9.60
2018-09-28T00:10:23.768Z,7.20
2018-09-28T00:12:52.552Z,7.93
2018-09-28T00:15:21.267Z,9.27
2018-09-28T00:17:49.909Z,11.03
2018-09-28T00:20:18.623Z,7.10
2018-09-28T00:22:47.272Z,7.77
2018-09-28T00:25:15.965Z,7.73
2018-09-28T00:27:44.667Z,6.33
2018-09-28T00:30:13.377Z,7.00
2018-09-28T00:32:42.125Z,5.97
2018-09-28T00:35:10.839Z,9.33
2018-09-28T00:37:39.537Z,8.13
2018-09-28T00:40:08.295Z,7.27
2018-09-28T00:42:36.925Z,8.20
2018-09-28T00:45:05.703Z,7.33
2018-09-28T00:47:34.728Z,7.63
2018-09-28T00:50:03.467Z,6.60
2018-09-28T00:52:32.117Z,6.87
2018-09-28T00:55:00.820Z,8.00
2018-09-28T00:57:29.480Z,6.37
2018-09-28T00:59:58.108Z,7.07
2018-09-28T01:02:26.765Z,7.60
2018-09-28T01:04:55.428Z,6.67
2018-09-28T01:07:24.075Z,8.70
2018-09-28T01:09:52.713Z,9.13
2018-09-28T01:12:21.351Z,7.50
2018-09-28T01:14:50.008Z,7.37
2018-09-28T01:17:18.674Z,6.70
2018-09-28T01:19:47.303Z,6.40
2018-09-28T01:22:16.019Z,10.37
2018-09-28T01:24:44.639Z,11.20
2018-09-28T01:27:13.278Z,12.80
2018-09-28T01:29:41.907Z,10.40
2018-09-28T01:32:10.575Z,12.13
2018-09-28T01:34:39.251Z,9.50
2018-09-28T01:37:08.148Z,8.37
2018-09-28T01:39:36.857Z,10.73
2018-09-28T01:42:05.551Z,7.77
2018-09-28T01:44:34.167Z,7.13
2018-09-28T01:47:02.863Z,12.13
2018-09-28T01:49:31.566Z,10.10
2018-09-28T01:52:00.207Z,7.53
2018-09-28T01:54:28.873Z,8.67
2018-09-28T01:56:57.539Z,10.53
2018-09-28T01:59:26.342Z,13.77
2018-09-28T02:01:55.003Z,10.97
2018-09-28T02:04:23.833Z,10.87
2018-09-28T02:06:52.536Z,13.23
2018-09-28T02:09:21.186Z,12.23
2018-09-28T02:11:49.894Z,12.13
2018-09-28T02:14:18.533Z,10.90
2018-09-28T02:16:47.236Z,8.70
2018-09-28T02:19:15.895Z,11.23
2018-09-28T02:21:44.567Z,9.00
2018-09-28T02:24:13.219Z,10.93
2018-09-28T02:26:41.896Z,11.57
2018-09-28T02:29:10.573Z,13.73
2018-09-28T02:31:39.216Z,10.67
2018-09-28T02:34:07.867Z,10.63
2018-09-28T02:36:36.525Z,10.60
2018-09-28T02:39:07.053Z,11.17
2018-09-28T02:41:35.741Z,11.47
2018-09-28T02:44:04.506Z,13.93
2018-09-28T02:46:33.185Z,12.13
2018-09-28T02:49:02.109Z,12.60
2018-09-28T02:51:30.855Z,14.87
2018-09-28T02:53:59.520Z,12.87
2018-09-28T02:56:28.188Z,12.57
2018-09-28T02:58:56.845Z,13.17
2018-09-28T03:01:25.510Z,12.83
2018-09-28T03:03:54.257Z,13.00
2018-09-28T03:06:23.187Z,13.07
2018-09-28T03:08:51.752Z,14.30
2018-09-28T03:11:20.473Z,13.43
2018-09-28T03:13:49.120Z,11.00
2018-09-28T03:16:17.854Z,10.63
2018-09-28T03:18:46.623Z,12.30
2018-09-28T03:21:15.332Z,10.40
2018-09-28T03:23:44.013Z,13.77
2018-09-28T03:26:12.714Z,12.57
2018-09-28T03:28:41.360Z,16.53
2018-09-28T03:31:10.111Z,17.80
2018-09-28T03:33:38.753Z,13.67
2018-09-28T03:36:07.482Z,19.50
2018-09-28T03:38:36.751Z,16.10
2018-09-28T03:41:05.549Z,16.77
2018-09-28T03:43:34.280Z,16.73
2018-09-28T03:46:03.068Z,14.87
2018-09-28T03:48:31.712Z,21.43
2018-09-28T03:51:00.485Z,18.70
2018-09-28T03:53:29.133Z,19.87
2018-09-28T03:55:57.786Z,14.43
2018-09-28T03:58:26.495Z,17.43
2018-09-28T04:00:55.228Z,14.40
2018-09-28T04:03:23.901Z,16.07
2018-09-28T04:05:52.605Z,15.23
2018-09-28T04:08:21.268Z,12.77
2018-09-28T04:10:49.955Z,19.87
2018-09-28T04:13:18.647Z,16.27
2018-09-28T04:15:47.371Z,17.03
2018-09-28T04:18:16.124Z,18.73
2018-09-28T04:20:44.763Z,23.73
2018-09-28T04:23:13.449Z,18.40
2018-09-28T04:25:42.409Z,15.77
2018-09-28T04:28:11.084Z,14.27
2018-09-28T04:30:39.864Z,12.53
2018-09-28T04:33:08.659Z,22.87
2018-09-28T04:35:37.364Z,16.17
2018-09-28T04:38:06.015Z,19.43
2018-09-28T04:40:34.739Z,19.70
2018-09-28T04:43:03.562Z,18.20
2018-09-28T04:45:32.382Z,20.77
2018-09-28T04:48:01.476Z,18.67
2018-09-28T04:50:30.176Z,13.27
2018-09-28T04:52:58.835Z,15.37
2018-09-28T04:55:27.556Z,18.90
2018-09-28T04:57:56.204Z,18.03
2018-09-28T05:00:24.923Z,14.70
2018-09-28T05:02:53.684Z,14.37
2018-09-28T05:05:22.309Z,16.73
2018-09-28T05:07:51.196Z,15.33
2018-09-28T05:10:19.849Z,17.93
2018-09-28T05:12:48.490Z,13.07
2018-09-28T05:15:17.232Z,18.37
2018-09-28T05:17:45.884Z,21.37
2018-09-28T05:20:14.511Z,16.00
2018-09-28T05:22:43.413Z,13.93
2018-09-28T05:25:12.118Z,13.17
2018-09-28T05:27:40.847Z,10.80
2018-09-28T05:30:09.651Z,12.83
2018-09-28T05:32:38.513Z,10.93
2018-09-28T05:35:07.096Z,11.80
2018-09-28T05:37:35.737Z,15.27
2018-09-28T05:40:04.488Z,13.00
2018-09-28T05:42:33.123Z,7.03
2018-09-28T05:45:01.816Z,6.43
2018-09-28T05:47:30.466Z,8.30
2018-09-28T05:49:59.319Z,6.10
2018-09-28T05:52:28.008Z,7.33
2018-09-28T05:54:56.699Z,7.57
2018-09-28T05:57:25.427Z,9.30
2018-09-28T05:59:59.215Z,8.47
2018-09-28T06:02:33.097Z,11.00
2018-09-28T06:05:07.044Z,11.77
2018-09-28T06:07:35.883Z,6.00
2018-09-28T06:10:04.683Z,7.20
2018-09-28T06:12:33.526Z,9.17
2018-09-28T06:15:02.266Z,14.17
2018-09-28T06:17:30.999Z,8.90
2018-09-28T06:19:59.715Z,13.03
2018-09-28T06:22:28.507Z,7.90
2018-09-28T06:24:57.328Z,8.00
2018-09-28T06:27:26.075Z,7.97
2018-09-28T06:29:54.894Z,8.37
2018-09-28T06:32:23.625Z,11.83
2018-09-28T06:34:52.401Z,11.07
2018-09-28T06:37:21.211Z,12.23
2018-09-28T06:39:49.832Z,11.70
2018-09-28T06:42:18.573Z,12.37
2018-09-28T06:44:47.231Z,12.50
2018-09-28T06:47:15.848Z,11.60
2018-09-28T06:49:44.494Z,15.40
2018-09-28T06:52:13.139Z,13.93
2018-09-28T06:54:41.809Z,10.07
2018-09-28T06:57:10.589Z,12.00
2018-09-28T06:59:39.272Z,11.93
2018-09-28T07:02:08.021Z,11.37
2018-09-28T07:04:36.808Z,8.40
2018-09-28T07:07:05.555Z,5.90
2018-09-28T07:09:34.368Z,5.00
2018-09-28T07:12:03.032Z,4.17
2018-09-28T07:14:31.693Z,3.87
2018-09-28T07:17:00.714Z,3.27
2018-09-28T07:19:29.427Z,5.77
2018-09-28T07:21:58.168Z,10.27
2018-09-28T07:24:27.858Z,8.00
2018-09-28T07:26:56.512Z,13.67
2018-09-28T07:29:25.343Z,6.97
2018-09-28T07:31:54.244Z,4.40
2018-09-28T07:34:23.155Z,4.10
2018-09-28T07:36:51.907Z,6.00
2018-09-28T07:39:20.487Z,5.43
2018-09-28T07:41:49.269Z,3.70
2018-09-28T07:44:17.922Z,6.17
2018-09-28T07:46:46.804Z,5.47
2018-09-28T07:49:15.473Z,9.37
2018-09-28T07:51:44.255Z,4.83
2018-09-28T07:54:12.915Z,6.03
2018-09-28T07:56:41.621Z,6.07
2018-09-28T07:59:10.319Z,6.97
2018-09-28T08:01:39.134Z,6.90
2018-09-28T08:04:08.008Z,6.70
2018-09-28T08:06:36.792Z,5.57
2018-09-28T08:09:07.760Z,4.73
2018-09-28T08:11:36.499Z,6.40
2018-09-28T08:14:05.338Z,4.67
2018-09-28T08:16:34.150Z,9.00
2018-09-28T08:19:02.870Z,5.80
2018-09-28T08:21:31.688Z,6.93
2018-09-28T08:24:01.041Z,5.87
2018-09-28T08:26:29.722Z,5.80
2018-09-28T08:28:58.423Z,5.27
2018-09-28T08:31:27.074Z,3.97
2018-09-28T08:33:55.761Z,5.50
2018-09-28T08:36:24.563Z,4.93
2018-09-28T08:38:53.204Z,5.80
2018-09-28T08:41:21.855Z,3.73
2018-09-28T08:43:50.527Z,3.57
2018-09-28T08:46:19.547Z,4.47
2018-09-28T08:48:48.290Z,4.50
2018-09-28T08:51:17.105Z,3.67
2018-09-28T08:54:00.476Z,4.40
2018-09-28T08:56:29.191Z,10.20
2018-09-28T08:58:58.248Z,8.37
2018-09-28T09:01:26.983Z,4.03
2018-09-28T09:03:55.631Z,4.10
2018-09-28T09:06:24.394Z,4.95
2018-09-28T09:08:53.141Z,4.05
2018-09-28T09:11:21.868Z,6.40
2018-09-28T09:13:50.759Z,3.30
2018-09-28T09:16:19.591Z,3.52
2018-09-28T09:18:48.354Z,3.15
2018-09-28T09:21:17.103Z,3.35
2018-09-28T09:23:45.803Z,4.45
2018-09-28T09:26:14.548Z,8.35
2018-09-28T09:28:43.291Z,4.53
2018-09-28T09:31:11.975Z,3.52
2018-09-28T09:33:40.608Z,3.90
2018-09-28T09:36:09.296Z,5.42
2018-09-28T09:38:37.935Z,6.17
2018-09-28T09:41:07.000Z,3.95
2018-09-28T09:43:35.687Z,3.30
2018-09-28T09:46:04.336Z,3.20
2018-09-28T09:48:33.978Z,5.10
2018-09-28T09:51:02.725Z,4.97
2018-09-28T09:53:31.457Z,4.53
2018-09-28T09:56:00.150Z,3.65
2018-09-28T09:58:28.912Z,4.03
2018-09-28T10:01:02.780Z,4.28
2018-09-28T10:03:36.725Z,4.37
2018-09-28T10:06:05.535Z,3.35
2018-09-28T10:08:34.440Z,2.90
2018-09-28T10:11:03.773Z,2.30
2018-09-28T10:13:32.500Z,2.67
2018-09-28T10:16:02.408Z,4.28
2018-09-28T10:18:31.158Z,5.40
2018-09-28T10:20:59.928Z,3.40
2018-09-28T10:23:28.731Z,4.87
2018-09-28T10:25:57.581Z,3.67
2018-09-28T10:28:26.437Z,3.30
2018-09-28T10:30:55.163Z,4.00
2018-09-28T10:33:23.880Z,8.50
2018-09-28T10:35:52.677Z,3.47
2018-09-28T10:38:21.438Z,5.35
2018-09-28T10:40:50.304Z,7.05
2018-09-28T10:43:18.964Z,5.33
2018-09-28T10:45:47.707Z,3.27
2018-09-28T10:48:16.410Z,5.87
2018-09-28T10:50:45.106Z,2.67
2018-09-28T10:53:13.861Z,5.28
2018-09-28T10:55:42.519Z,4.75
2018-09-28T10:58:11.281Z,3.98
2018-09-28T11:00:39.935Z,4.42
2018-09-28T11:03:08.773Z,3.95
2018-09-28T11:05:37.576Z,3.02
2018-09-28T11:08:06.403Z,3.60
2018-09-28T11:10:35.085Z,3.65
2018-09-28T11:13:03.888Z,3.05
2018-09-28T11:15:32.652Z,3.72
2018-09-28T11:18:01.289Z,2.98
2018-09-28T11:20:30.040Z,2.87
2018-09-28T11:22:58.699Z,3.25
2018-09-28T11:25:27.391Z,3.83
2018-09-28T11:27:56.089Z,3.27
2018-09-28T11:30:24.810Z,3.33
2018-09-28T11:32:53.493Z,2.98
2018-09-28T11:35:22.161Z,3.10
2018-09-28T11:37:51.225Z,5.00
2018-09-28T11:40:19.832Z,3.87
2018-09-28T11:42:48.596Z,3.17
2018-09-28T11:45:17.301Z,2.98
2018-09-28T11:47:45.958Z,4.05
2018-09-28T11:50:14.736Z,4.17
2018-09-28T11:52:43.520Z,3.10
2018-09-28T11:55:12.261Z,3.45
2018-09-28T11:57:41.160Z,2.98
2018-09-28T12:00:12.620Z,9.08
2018-09-28T12:02:41.369Z,4.55
2018-09-28T12:05:10.049Z,3.10
2018-09-28T12:07:38.740Z,4.47
2018-09-28T12:10:07.588Z,3.47
2018-09-28T12:12:36.494Z,3.02
2018-09-28T12:15:05.379Z,4.05
2018-09-28T12:17:34.066Z,4.75
2018-09-28T12:20:02.752Z,5.15
2018-09-28T12:22:31.425Z,4.62
2018-09-28T12:25:00.220Z,3.08
2018-09-28T12:27:29.030Z,4.95
2018-09-28T12:29:57.775Z,5.72
2018-09-28T12:32:26.440Z,2.60
2018-09-28T12:34:55.135Z,3.60
2018-09-28T12:37:23.818Z,2.87
2018-09-28T12:39:52.640Z,3.43
2018-09-28T12:42:21.459Z,3.13
2018-09-28T12:44:50.250Z,3.80
2018-09-28T12:47:18.987Z,4.13
2018-09-28T12:49:47.747Z,3.73
2018-09-28T12:52:16.577Z,4.67
2018-09-28T12:54:45.353Z,4.20
2018-09-28T12:57:14.228Z,4.00
2018-09-28T12:59:43.084Z,2.53
2018-09-28T13:02:11.845Z,4.30
2018-09-28T13:04:40.611Z,4.40
2018-09-28T13:07:09.418Z,3.00
2018-09-28T13:09:38.159Z,2.60
2018-09-28T13:12:07.843Z,3.03
2018-09-28T13:14:36.639Z,4.27
2018-09-28T13:17:05.494Z,4.63
2018-09-28T13:19:34.353Z,4.80
2018-09-28T13:22:03.060Z,2.70
2018-09-28T13:24:32.054Z,3.33
2018-09-28T13:27:00.836Z,2.60
2018-09-28T13:29:29.818Z,2.60
2018-09-28T13:31:58.504Z,3.47
2018-09-28T13:34:27.281Z,3.90
2018-09-28T13:36:55.991Z,3.07
2018-09-28T13:39:24.661Z,3.63
2018-09-28T13:41:53.437Z,3.80
2018-09-28T13:44:22.186Z,2.27
2018-09-28T13:46:51.105Z,6.13
2018-09-28T13:49:19.744Z,4.20
2018-09-28T13:51:48.447Z,2.50
2018-09-28T13:54:17.208Z,3.83
2018-09-28T13:56:46.012Z,2.77
2018-09-28T13:59:14.761Z,4.43
2018-09-28T14:01:43.494Z,3.47
2018-09-28T14:04:12.145Z,4.67
2018-09-28T14:06:40.938Z,5.77
2018-09-28T14:09:10.372Z,4.70
2018-09-28T14:11:39.296Z,3.57
2018-09-28T14:14:08.116Z,5.17
2018-09-28T14:16:37.344Z,6.67
2018-09-28T14:19:06.267Z,2.47
2018-09-28T14:21:35.094Z,6.03
2018-09-28T14:24:03.784Z,5.30
2018-09-28T14:26:32.679Z,3.33
2018-09-28T14:29:01.392Z,7.70
2018-09-28T14:31:30.075Z,5.37
2018-09-28T14:33:58.852Z,2.90
2018-09-28T14:36:27.649Z,4.37
2018-09-28T14:38:56.272Z,3.37
2018-09-28T14:41:24.937Z,2.63
2018-09-28T14:43:53.772Z,3.27
2018-09-28T14:46:22.716Z,3.37
2018-09-28T14:48:51.491Z,3.03
2018-09-28T14:51:20.136Z,3.07
2018-09-28T14:53:48.805Z,4.67
2018-09-28T14:56:17.601Z,2.37
2018-09-28T14:58:46.316Z,2.20
2018-09-28T15:01:15.933Z,5.97
2018-09-28T15:03:44.589Z,2.40
2018-09-28T15:06:13.963Z,2.87
2018-09-28T15:08:42.760Z,2.50
2018-09-28T15:11:11.572Z,2.40
2018-09-28T15:13:40.214Z,2.17
2018-09-28T15:16:08.955Z,2.30
2018-09-28T15:18:37.659Z,5.70
2018-09-28T15:21:06.133Z,3.20
2018-09-28T15:23:34.948Z,2.67
2018-09-28T15:26:03.592Z,3.97
2018-09-28T15:28:32.249Z,2.47
2018-09-28T15:31:00.946Z,4.70
2018-09-28T15:33:29.586Z,5.57
2018-09-28T15:35:58.234Z,3.97
2018-09-28T15:38:26.941Z,3.83
2018-09-28T15:40:55.694Z,2.80
2018-09-28T15:43:24.700Z,4.10
2018-09-28T15:45:53.439Z,4.23
2018-09-28T15:48:22.257Z,4.43
2018-09-28T15:50:50.957Z,3.93
2018-09-28T15:53:19.645Z,5.83
2018-09-28T15:55:48.341Z,3.93
2018-09-28T15:58:17.029Z,3.43
2018-09-28T16:00:45.724Z,6.87
2018-09-28T16:03:14.542Z,2.67
2018-09-28T16:05:43.287Z,3.43
2018-09-28T16:08:11.954Z,3.30
2018-09-28T16:10:40.592Z,4.33
2018-09-28T16:13:09.221Z,3.50
2018-09-28T16:15:38.033Z,5.23
2018-09-28T16:18:06.712Z,4.73
2018-09-28T16:20:35.423Z,4.20
2018-09-28T16:23:04.243Z,8.20
2018-09-28T16:25:33.021Z,5.40
2018-09-28T16:28:01.693Z,4.40
2018-09-28T16:30:30.452Z,4.83
2018-09-28T16:32:59.209Z,7.17
2018-09-28T16:35:27.943Z,5.80
2018-09-28T16:37:56.614Z,5.00
2018-09-28T16:40:25.296Z,8.47
2018-09-28T16:42:54.112Z,4.67
2018-09-28T16:45:22.760Z,6.40
2018-09-28T16:47:51.443Z,6.67
2018-09-28T16:50:20.580Z,6.77
2018-09-28T16:52:49.388Z,8.50
2018-09-28T16:55:18.040Z,5.30
2018-09-28T16:57:46.753Z,5.47
2018-09-28T17:00:15.593Z,9.93
2018-09-28T17:02:44.268Z,7.23
2018-09-28T17:05:12.980Z,7.60
2018-09-28T17:07:41.668Z,9.97
2018-09-28T17:10:10.433Z,12.10
2018-09-28T17:12:39.244Z,12.00
2018-09-28T17:15:07.928Z,10.07
2018-09-28T17:17:36.645Z,14.43
2018-09-28T17:20:05.512Z,9.63
2018-09-28T17:22:34.161Z,7.67
2018-09-28T17:25:03.000Z,8.47
2018-09-28T17:27:31.794Z,10.43
2018-09-28T17:30:00.557Z,9.53
2018-09-28T17:32:29.581Z,10.07
2018-09-28T17:34:58.442Z,13.13
2018-09-28T17:37:27.100Z,9.47
2018-09-28T17:39:55.844Z,11.57
2018-09-28T17:42:24.489Z,9.00
2018-09-28T17:44:53.151Z,10.67
2018-09-28T17:47:21.836Z,13.07
2018-09-28T17:49:50.499Z,13.63
2018-09-28T17:52:19.241Z,14.43
2018-09-28T17:54:48.088Z,13.60
2018-09-28T17:57:16.867Z,14.57
2018-09-28T17:59:45.635Z,19.63
2018-09-28T18:02:14.378Z,19.80
2018-09-28T18:04:43.221Z,19.80
2018-09-28T18:07:11.901Z,23.77
2018-09-28T18:09:41.192Z,23.30
2018-09-28T18:12:09.968Z,26.20
2018-09-28T18:14:38.660Z,22.90
2018-09-28T18:17:07.394Z,26.17
2018-09-28T18:19:36.092Z,18.57
2018-09-28T18:22:05.041Z,20.00
2018-09-28T18:24:33.802Z,22.03
2018-09-28T18:27:02.499Z,18.43
2018-09-28T18:29:31.144Z,23.53
2018-09-28T18:31:59.858Z,19.20
2018-09-28T18:34:28.523Z,16.27
2018-09-28T18:36:57.175Z,18.53
2018-09-28T18:39:25.954Z,22.47
2018-09-28T18:41:54.620Z,24.07
2018-09-28T18:44:23.344Z,23.03
2018-09-28T18:46:51.984Z,25.93
2018-09-28T18:49:21.078Z,23.67
2018-09-28T18:51:49.847Z,21.80
2018-09-28T18:54:18.500Z,27.37
2018-09-28T18:56:47.275Z,22.17
2018-09-28T18:59:15.928Z,17.20
2018-09-28T19:01:44.612Z,18.53
2018-09-28T19:04:13.348Z,16.10
2018-09-28T19:06:42.091Z,16.23
2018-09-28T19:09:12.022Z,14.30
2018-09-28T19:11:41.193Z,18.47
2018-09-28T19:14:09.885Z,19.47
2018-09-28T19:16:38.600Z,23.43
2018-09-28T19:19:07.310Z,19.60
2018-09-28T19:21:36.003Z,15.63
2018-09-28T19:24:04.700Z,10.00
2018-09-28T19:26:33.413Z,13.10
2018-09-28T19:29:02.151Z,12.87
2018-09-28T19:31:30.944Z,13.83
2018-09-28T19:33:59.621Z,19.83
2018-09-28T19:36:28.360Z,19.23
2018-09-28T19:38:57.308Z,21.93
2018-09-28T19:41:26.025Z,23.47
2018-09-28T19:43:54.834Z,25.17
2018-09-28T19:46:23.609Z,25.03
2018-09-28T19:48:52.331Z,24.70
2018-09-28T19:51:21.065Z,20.57
2018-09-28T19:53:49.801Z,22.57
2018-09-28T19:56:18.588Z,21.63
2018-09-28T19:58:47.236Z,25.40
2018-09-28T20:01:16.270Z,21.17
2018-09-28T20:03:45.641Z,19.40
2018-09-28T20:06:14.371Z,19.97
2018-09-28T20:08:43.226Z,18.53
2018-09-28T20:11:12.012Z,16.77
2018-09-28T20:13:40.719Z,15.43
2018-09-28T20:16:09.485Z,12.87
2018-09-28T20:18:38.200Z,10.83
2018-09-28T20:21:07.300Z,14.17
2018-09-28T20:23:36.062Z,12.83
2018-09-28T20:26:04.852Z,23.87
2018-09-28T20:28:33.628Z,10.93
2018-09-28T20:31:02.365Z,17.20
2018-09-28T20:33:31.115Z,13.03
2018-09-28T20:35:59.768Z,10.90
2018-09-28T20:38:28.497Z,12.47
2018-09-28T20:40:57.204Z,13.30
2018-09-28T20:43:25.975Z,12.80
2018-09-28T20:45:54.661Z,15.13
2018-09-28T20:48:23.372Z,13.33
2018-09-28T20:50:52.048Z,11.70
2018-09-28T20:53:20.852Z,11.13
2018-09-28T20:55:49.517Z,10.07
2018-09-28T20:58:18.169Z,8.07
2018-09-28T21:00:46.858Z,10.67
2018-09-28T21:03:15.498Z,9.50
2018-09-28T21:05:44.143Z,10.17
2018-09-28T21:08:12.791Z,8.03
2018-09-28T21:10:41.741Z,8.23
2018-09-28T21:13:10.452Z,10.07
2018-09-28T21:15:39.118Z,9.57
2018-09-28T21:18:07.843Z,13.33
2018-09-28T21:20:36.533Z,11.93
2018-09-28T21:23:05.212Z,11.57
2018-09-28T21:25:34.077Z,12.57
2018-09-28T21:28:02.745Z,13.40
2018-09-28T21:30:31.467Z,12.00
2018-09-28T21:33:00.128Z,10.63
2018-09-28T21:35:29.009Z,12.47
2018-09-28T21:37:57.772Z,11.37
2018-09-28T21:40:26.488Z,9.13
2018-09-28T21:42:55.312Z,10.80
2018-09-28T21:45:24.062Z,13.60
2018-09-28T21:47:52.768Z,10.60
2018-09-28T21:50:21.575Z,11.47
2018-09-28T21:52:50.292Z,9.97
2018-09-28T21:55:19.083Z,11.07
2018-09-28T21:57:47.938Z,13.27
2018-09-28T22:00:16.648Z,12.90
2018-09-28T22:02:45.340Z,12.70
2018-09-28T22:05:14.076Z,11.07
2018-09-28T22:07:42.924Z,12.67
2018-09-28T22:10:11.659Z,12.90
2018-09-28T22:12:40.372Z,14.47
2018-09-28T22:15:09.021Z,10.13
2018-09-28T22:17:37.785Z,14.67
2018-09-28T22:20:06.940Z,12.20
2018-09-28T22:22:35.608Z,13.67
2018-09-28T22:25:04.333Z,14.17
2018-09-28T22:27:32.957Z,11.37
2018-09-28T22:30:01.637Z,11.23
2018-09-28T22:32:30.317Z,10.40
2018-09-28T22:34:59.056Z,9.93
2018-09-28T22:37:27.701Z,11.43
2018-09-28T22:39:56.494Z,11.27
2018-09-28T22:42:25.209Z,9.13
2018-09-28T22:44:54.006Z,9.23
2018-09-28T22:47:22.781Z,13.03
2018-09-28T22:49:51.587Z,9.73
2018-09-28T22:52:20.269Z,12.17
2018-09-28T22:54:48.941Z,10.40
2018-09-28T22:57:17.665Z,9.37
2018-09-28T22:59:46.414Z,12.23
2018-09-28T23:02:15.206Z,9.47
2018-09-28T23:04:43.900Z,10.93
2018-09-28T23:07:12.700Z,10.13
2018-09-28T23:09:41.395Z,10.50
2018-09-28T23:12:10.067Z,11.20
2018-09-28T23:14:38.836Z,13.03
2018-09-28T23:17:07.639Z,12.73
2018-09-28T23:19:36.369Z,17.83
2018-09-28T23:22:05.152Z,13.43
2018-09-28T23:24:33.817Z,15.53
2018-09-28T23:27:02.574Z,15.50
2018-09-28T23:29:31.238Z,11.50
2018-09-28T23:31:59.964Z,11.73
2018-09-28T23:34:28.600Z,15.03
2018-09-28T23:36:57.277Z,12.00
2018-09-28T23:39:25.958Z,15.63
2018-09-28T23:41:54.717Z,11.63
2018-09-28T23:44:23.386Z,14.07
2018-09-28T23:46:52.121Z,14.50
2018-09-28T23:49:20.938Z,14.07
2018-09-28T23:51:49.951Z,13.17
2018-09-28T23:54:18.762Z,9.47
2018-09-28T23:56:47.742Z,11.63
2018-09-28T23:59:16.476Z,12.17
